createdAt,value
2022-12-11T00:02:51.104Z,82.29
2022-12-11T00:05:53.795Z,82.28
2022-12-11T00:08:56.504Z,82.42
2022-12-11T00:11:59.207Z,84.73
2022-12-11T00:15:01.912Z,84.91
2022-12-11T00:18:07.331Z,84.98
2022-12-11T00:21:14.065Z,85.19
2022-12-11T00:24:16.790Z,85.77
2022-12-11T00:27:19.573Z,86.44
2022-12-11T00:30:22.289Z,87.01
2022-12-11T00:33:27.876Z,85.97
2022-12-11T00:36:30.543Z,86.25
2022-12-11T00:39:33.280Z,87.65
2022-12-11T00:42:35.988Z,87.56
2022-12-11T00:45:39.095Z,87.18
2022-12-11T00:48:43.363Z,87.75
2022-12-11T00:51:46.057Z,87.49
2022-12-11T00:54:48.918Z,88.24
2022-12-11T00:57:52.441Z,87.73
2022-12-11T01:00:55.153Z,87.84
2022-12-11T01:03:59.351Z,87.22
2022-12-11T01:07:02.155Z,87.31
2022-12-11T01:10:23.872Z,87.11
2022-12-11T01:13:26.539Z,87.44
2022-12-11T01:16:29.290Z,87.44
2022-12-11T01:19:33.773Z,88.41
2022-12-11T01:22:36.451Z,88.09
2022-12-11T01:25:39.134Z,88.05
2022-12-11T01:28:42.817Z,88.56
2022-12-11T01:31:45.511Z,89.25
2022-12-11T01:34:49.534Z,88.56
2022-12-11T01:37:52.202Z,88.85
2022-12-11T01:40:54.884Z,88.47
2022-12-11T01:44:02.222Z,89.13
2022-12-11T01:47:04.966Z,88.49
2022-12-11T01:50:09.841Z,87.77
2022-12-11T01:53:17.830Z,88.14
2022-12-11T01:56:21.085Z,88.38
2022-12-11T01:59:27.976Z,88.11
2022-12-11T02:02:32.051Z,88.48
2022-12-11T02:05:36.141Z,88.50
2022-12-11T02:08:38.900Z,88.44
2022-12-11T02:11:52.925Z,88.23
2022-12-11T02:15:03.845Z,88.15
2022-12-11T02:18:19.884Z,88.21
2022-12-11T02:21:27.805Z,87.61
2022-12-11T02:24:48.158Z,87.89
2022-12-11T02:27:56.675Z,87.64
2022-12-11T02:31:05.538Z,87.31
2022-12-11T02:34:13.584Z,87.75
2022-12-11T02:37:22.894Z,88.39
2022-12-11T02:40:29.765Z,87.90
2022-12-11T02:43:34.163Z,87.37
2022-12-11T02:46:39.020Z,87.78
2022-12-11T02:49:44.968Z,88.33
2022-12-11T02:52:51.502Z,89.02
2022-12-11T02:56:00.386Z,88.86
2022-12-11T02:59:10.009Z,88.85
2022-12-11T03:02:16.266Z,89.02
2022-12-11T03:05:19.126Z,89.47
2022-12-11T03:08:21.792Z,89.38
2022-12-11T03:11:24.656Z,89.42
2022-12-11T03:14:27.288Z,89.04
2022-12-11T03:17:36.586Z,89.67
2022-12-11T03:20:44.468Z,89.00
2022-12-11T03:23:53.817Z,89.46
2022-12-11T03:27:01.130Z,89.33
2022-12-11T03:30:07.645Z,88.62
2022-12-11T03:33:15.232Z,88.53
2022-12-11T03:36:23.196Z,89.07
2022-12-11T03:39:31.106Z,88.65
2022-12-11T03:42:35.119Z,88.58
2022-12-11T03:45:40.394Z,88.94
2022-12-11T03:48:47.659Z,88.88
2022-12-11T03:51:53.098Z,88.02
2022-12-11T03:54:59.575Z,88.58
2022-12-11T03:58:02.450Z,88.33
2022-12-11T04:01:05.440Z,89.03
2022-12-11T04:04:09.518Z,88.84
2022-12-11T04:07:12.377Z,87.92
2022-12-11T04:10:15.127Z,87.88
2022-12-11T04:13:17.768Z,88.12
2022-12-11T04:16:19.449Z,88.46
2022-12-11T04:19:41.887Z,88.03
2022-12-11T04:23:02.313Z,88.31
2022-12-11T04:26:07.081Z,87.54
2022-12-11T04:29:09.733Z,87.50
2022-12-11T04:32:12.647Z,88.37
2022-12-11T04:35:17.022Z,87.81
2022-12-11T04:38:19.731Z,88.00
2022-12-11T04:41:22.352Z,87.99
2022-12-11T04:44:24.980Z,87.22
2022-12-11T04:47:27.875Z,86.63
2022-12-11T04:50:32.131Z,85.76
2022-12-11T04:53:34.951Z,85.73
2022-12-11T04:56:37.627Z,85.49
2022-12-11T04:59:40.373Z,86.05
2022-12-11T05:02:43.403Z,85.57
2022-12-11T05:05:50.589Z,85.64
2022-12-11T05:08:53.496Z,85.26
2022-12-11T05:11:56.516Z,84.74
2022-12-11T05:14:59.199Z,85.40
2022-12-11T05:18:01.830Z,85.42
2022-12-11T05:21:08.454Z,85.47
2022-12-11T05:24:11.092Z,85.09
2022-12-11T05:27:14.232Z,84.80
2022-12-11T05:30:17.079Z,83.86
2022-12-11T05:33:19.744Z,83.47
2022-12-11T05:36:26.005Z,83.88
2022-12-11T05:39:28.635Z,83.38
2022-12-11T05:42:31.375Z,83.92
2022-12-11T05:45:34.155Z,83.77
2022-12-11T05:48:37.691Z,83.37
2022-12-11T05:51:43.267Z,81.98
2022-12-11T05:54:45.959Z,81.24
2022-12-11T05:57:48.592Z,79.83
2022-12-11T06:00:51.225Z,78.95
2022-12-11T06:03:55.237Z,79.85
2022-12-11T06:06:59.215Z,79.83
2022-12-11T06:10:01.892Z,80.32
2022-12-11T06:13:04.925Z,82.27
2022-12-11T06:16:09.182Z,84.27
2022-12-11T06:19:14.600Z,82.36
2022-12-11T06:22:18.627Z,81.02
2022-12-11T06:25:21.311Z,80.92
2022-12-11T06:28:23.965Z,81.87
2022-12-11T06:31:26.648Z,79.35
2022-12-11T06:34:29.401Z,80.18
2022-12-11T06:37:33.416Z,82.13
2022-12-11T06:40:36.105Z,81.62
2022-12-11T06:43:41.126Z,82.52
2022-12-11T06:46:43.830Z,81.72
2022-12-11T06:49:46.464Z,81.31
2022-12-11T06:52:50.779Z,79.94
2022-12-11T06:55:58.241Z,79.26
2022-12-11T06:59:07.287Z,80.63
2022-12-11T07:02:15.098Z,82.16
2022-12-11T07:05:20.130Z,82.29
2022-12-11T07:08:26.852Z,83.88
2022-12-11T07:11:31.749Z,83.44
2022-12-11T07:14:35.614Z,83.27
2022-12-11T07:17:40.612Z,83.25
2022-12-11T07:20:45.002Z,83.34
2022-12-11T07:23:50.650Z,84.75
2022-12-11T07:26:54.027Z,84.84
2022-12-11T07:29:57.422Z,85.51
2022-12-11T07:33:01.107Z,84.93
2022-12-11T07:36:04.742Z,85.47
2022-12-11T07:39:10.119Z,86.01
2022-12-11T07:42:14.506Z,87.49
2022-12-11T07:45:19.257Z,87.66
2022-12-11T07:48:23.774Z,87.23
2022-12-11T07:51:30.199Z,87.88
2022-12-11T07:54:35.856Z,87.52
2022-12-11T07:57:40.462Z,87.81
2022-12-11T08:00:48.573Z,87.70
2022-12-11T08:03:53.537Z,87.37
2022-12-11T08:06:58.115Z,88.00
2022-12-11T08:10:04.473Z,87.78
2022-12-11T08:13:09.099Z,87.84
2022-12-11T08:16:15.784Z,87.50
2022-12-11T08:19:20.821Z,86.43
2022-12-11T08:22:26.415Z,86.66
2022-12-11T08:25:33.134Z,86.24
2022-12-11T08:28:38.363Z,85.92
2022-12-11T08:31:43.738Z,86.47
2022-12-11T08:34:49.390Z,85.87
2022-12-11T08:37:54.616Z,86.29
2022-12-11T08:41:00.917Z,86.38
2022-12-11T08:44:06.153Z,86.62
2022-12-11T08:47:11.714Z,86.74
2022-12-11T08:50:16.514Z,86.71
2022-12-11T08:53:21.476Z,86.72
2022-12-11T08:56:28.708Z,87.06
2022-12-11T08:59:33.446Z,87.52
2022-12-11T09:02:39.076Z,87.04
2022-12-11T09:05:44.789Z,87.42
2022-12-11T09:08:52.931Z,87.36
2022-12-11T09:12:00.480Z,86.90
2022-12-11T09:15:05.140Z,86.24
2022-12-11T09:18:09.392Z,85.41
2022-12-11T09:21:16.046Z,84.10
2022-12-11T09:24:23.565Z,83.64
2022-12-11T09:27:29.563Z,82.82
2022-12-11T09:30:34.690Z,83.12
2022-12-11T09:33:39.353Z,83.50
2022-12-11T09:36:45.106Z,83.20
2022-12-11T09:39:49.046Z,84.10
2022-12-11T09:42:59.560Z,84.43
2022-12-11T09:46:07.334Z,84.37
2022-12-11T09:49:24.549Z,84.22
2022-12-11T09:52:36.474Z,84.13
2022-12-11T09:55:52.170Z,83.47
2022-12-11T09:59:06.114Z,83.69
2022-12-11T10:02:26.838Z,82.73
2022-12-11T10:05:40.422Z,81.39
2022-12-11T10:08:52.887Z,81.39
2022-12-11T10:12:07.991Z,81.66
2022-12-11T10:15:36.572Z,81.77
2022-12-11T10:18:42.078Z,80.81
2022-12-11T10:21:48.839Z,80.73
2022-12-11T10:25:10.706Z,80.97
2022-12-11T10:28:17.618Z,80.75
2022-12-11T10:31:34.195Z,80.10
2022-12-11T10:34:42.991Z,80.50
2022-12-11T10:37:48.548Z,80.14
2022-12-11T10:40:58.700Z,79.27
2022-12-11T10:44:03.979Z,80.36
2022-12-11T10:47:14.465Z,79.80
2022-12-11T10:50:27.176Z,79.92
2022-12-11T10:53:32.485Z,79.63
2022-12-11T10:56:39.582Z,79.18
2022-12-11T10:59:49.744Z,78.03
2022-12-11T11:02:56.784Z,77.43
2022-12-11T11:06:06.312Z,77.03
2022-12-11T11:09:38.525Z,76.81
2022-12-11T11:12:44.902Z,75.95
2022-12-11T11:15:49.941Z,75.73
2022-12-11T11:18:58.503Z,74.79
2022-12-11T11:22:07.460Z,74.28
2022-12-11T11:25:20.009Z,74.25
2022-12-11T11:28:27.626Z,74.24
2022-12-11T11:31:37.381Z,73.28
2022-12-11T11:34:44.147Z,74.58
2022-12-11T11:38:00.045Z,76.23
2022-12-11T11:41:15.269Z,77.48
2022-12-11T11:44:26.800Z,78.05
2022-12-11T11:47:38.324Z,77.89
2022-12-11T11:50:50.891Z,77.39
2022-12-11T11:53:59.756Z,76.52
2022-12-11T11:57:13.312Z,76.19
2022-12-11T12:00:23.207Z,76.98
2022-12-11T12:03:29.410Z,76.05
2022-12-11T12:07:01.082Z,76.43
2022-12-11T12:10:17.077Z,76.14
2022-12-11T12:13:49.065Z,76.62
2022-12-11T12:17:03.391Z,75.89
2022-12-11T12:20:19.864Z,77.43
2022-12-11T12:23:41.251Z,76.85
2022-12-11T12:26:50.807Z,76.43
2022-12-11T12:30:05.065Z,78.12
2022-12-11T12:33:30.314Z,77.78
2022-12-11T12:36:45.161Z,78.01
2022-12-11T12:39:58.643Z,78.34
2022-12-11T12:43:27.993Z,78.79
2022-12-11T12:46:48.315Z,78.74
2022-12-11T12:49:55.755Z,78.80
2022-12-11T12:53:00.486Z,77.36
2022-12-11T12:56:08.379Z,77.48
2022-12-11T12:59:23.891Z,76.35
2022-12-11T13:02:29.685Z,75.93
2022-12-11T13:05:36.698Z,75.73
2022-12-11T13:08:44.210Z,75.77
2022-12-11T13:11:54.175Z,76.37
2022-12-11T13:14:59.475Z,75.01
2022-12-11T13:18:07.456Z,72.90
2022-12-11T13:21:29.856Z,68.79
2022-12-11T13:24:35.693Z,68.88
2022-12-11T13:27:43.992Z,69.23
2022-12-11T13:31:00.343Z,71.33
2022-12-11T13:34:18.086Z,69.51
2022-12-11T13:37:29.782Z,64.68
2022-12-11T13:40:40.864Z,59.03
2022-12-11T13:43:49.530Z,55.75
2022-12-11T13:46:57.329Z,50.98
2022-12-11T13:50:16.362Z,49.57
2022-12-11T13:53:22.879Z,48.33
2022-12-11T13:56:27.754Z,47.53
2022-12-11T13:59:37.137Z,49.93
2022-12-11T14:02:43.775Z,53.43
2022-12-11T14:05:49.840Z,56.01
2022-12-11T14:08:59.898Z,58.56
2022-12-11T14:12:05.281Z,58.72
2022-12-11T14:15:18.462Z,59.70
2022-12-11T14:18:26.976Z,59.95
2022-12-11T14:21:32.060Z,62.17
2022-12-11T14:24:37.284Z,64.47
2022-12-11T14:27:50.468Z,65.42
2022-12-11T14:31:00.087Z,67.10
2022-12-11T14:34:11.202Z,68.94
2022-12-11T14:37:21.428Z,70.37
2022-12-11T14:40:30.270Z,71.33
2022-12-11T14:43:42.283Z,72.79
2022-12-11T14:46:52.276Z,73.97
2022-12-11T14:50:01.845Z,74.37
2022-12-11T14:53:12.470Z,74.83
2022-12-11T14:56:21.529Z,76.17
2022-12-11T14:59:31.868Z,76.42
2022-12-11T15:02:39.439Z,76.36
2022-12-11T15:05:52.077Z,76.72
2022-12-11T15:08:57.472Z,76.50
2022-12-11T15:12:12.212Z,76.90
2022-12-11T15:15:19.128Z,77.24
2022-12-11T15:18:29.335Z,78.00
2022-12-11T15:21:37.208Z,78.46
2022-12-11T15:24:45.361Z,80.02
2022-12-11T15:27:53.979Z,80.65
2022-12-11T15:31:01.094Z,81.24
2022-12-11T15:34:25.434Z,81.03
2022-12-11T15:37:33.038Z,81.25
2022-12-11T15:40:37.932Z,81.22
2022-12-11T15:43:42.668Z,80.58
2022-12-11T15:46:47.448Z,80.00
2022-12-11T15:49:56.734Z,80.33
2022-12-11T15:53:01.728Z,79.94
2022-12-11T15:56:07.010Z,79.98
2022-12-11T15:59:12.842Z,80.11
2022-12-11T16:02:20.059Z,80.79
2022-12-11T16:05:29.104Z,80.83
2022-12-11T16:08:35.440Z,80.91
2022-12-11T16:11:43.960Z,81.42
2022-12-11T16:14:50.293Z,81.36
2022-12-11T16:18:04.775Z,81.71
2022-12-11T16:21:14.520Z,82.01
2022-12-11T16:24:24.372Z,81.82
2022-12-11T16:27:30.711Z,82.04
2022-12-11T16:30:39.098Z,82.71
2022-12-11T16:33:44.722Z,82.95
2022-12-11T16:36:52.102Z,83.12
2022-12-11T16:39:57.593Z,83.24
2022-12-11T16:43:04.431Z,83.64
2022-12-11T16:46:10.517Z,84.02
2022-12-11T16:49:15.376Z,83.62
2022-12-11T16:52:22.459Z,84.29
2022-12-11T16:55:26.925Z,83.65
2022-12-11T16:58:31.540Z,83.65
2022-12-11T17:01:37.313Z,83.87
2022-12-11T17:04:42.404Z,84.28
2022-12-11T17:07:48.732Z,84.49
2022-12-11T17:10:54.423Z,84.37
2022-12-11T17:14:00.710Z,84.83
2022-12-11T17:17:05.651Z,84.64
2022-12-11T17:20:11.994Z,84.84
2022-12-11T17:23:18.278Z,84.93
2022-12-11T17:26:25.893Z,85.18
2022-12-11T17:29:31.165Z,85.25
2022-12-11T17:32:36.157Z,85.62
2022-12-11T17:35:42.403Z,85.90
2022-12-11T17:38:50.602Z,85.63
2022-12-11T17:41:55.410Z,85.32
2022-12-11T17:45:00.924Z,84.78
2022-12-11T17:48:09.482Z,84.73
2022-12-11T17:51:21.256Z,85.14
2022-12-11T17:54:27.455Z,85.15
2022-12-11T17:57:32.182Z,84.62
2022-12-11T18:00:37.320Z,84.44
2022-12-11T18:03:45.413Z,84.57
2022-12-11T18:06:50.546Z,84.07
2022-12-11T18:09:57.133Z,83.60
2022-12-11T18:13:01.866Z,84.08
2022-12-11T18:16:10.175Z,83.38
2022-12-11T18:19:16.148Z,83.24
2022-12-11T18:22:21.241Z,83.40
2022-12-11T18:25:28.470Z,83.69
2022-12-11T18:28:33.195Z,82.51
2022-12-11T18:31:42.421Z,82.46
2022-12-11T18:34:48.012Z,80.90
2022-12-11T18:37:52.773Z,80.84
2022-12-11T18:40:58.895Z,81.74
2022-12-11T18:44:09.529Z,81.83
2022-12-11T18:47:15.049Z,81.75
2022-12-11T18:50:20.060Z,82.31
2022-12-11T18:53:25.080Z,82.68
2022-12-11T18:56:31.388Z,81.69
2022-12-11T18:59:36.696Z,81.69
2022-12-11T19:02:41.524Z,81.58
2022-12-11T19:05:46.647Z,81.82
2022-12-11T19:08:51.667Z,82.75
2022-12-11T19:11:58.272Z,82.07
2022-12-11T19:15:02.963Z,81.40
2022-12-11T19:18:08.218Z,82.03
2022-12-11T19:21:14.003Z,81.77
2022-12-11T19:24:20.387Z,81.11
2022-12-11T19:27:26.733Z,80.61
2022-12-11T19:30:32.057Z,80.89
2022-12-11T19:33:37.189Z,81.12
2022-12-11T19:36:41.908Z,81.83
2022-12-11T19:39:46.881Z,82.26
2022-12-11T19:42:55.781Z,81.24
2022-12-11T19:46:03.294Z,80.57
2022-12-11T19:49:08.240Z,80.18
2022-12-11T19:52:13.046Z,80.01
2022-12-11T19:55:20.486Z,80.88
2022-12-11T19:58:26.493Z,82.41
2022-12-11T20:01:34.014Z,83.91
2022-12-11T20:04:38.827Z,84.19
2022-12-11T20:07:44.973Z,83.71
2022-12-11T20:10:49.515Z,84.43
2022-12-11T20:13:58.799Z,85.45
2022-12-11T20:17:13.559Z,85.98
2022-12-11T20:20:20.105Z,86.02
2022-12-11T20:23:25.930Z,86.60
2022-12-11T20:26:32.804Z,87.31
2022-12-11T20:29:39.418Z,87.38
2022-12-11T20:32:43.954Z,86.77
2022-12-11T20:35:50.351Z,86.51
2022-12-11T20:38:57.919Z,86.66
2022-12-11T20:42:05.176Z,86.96
2022-12-11T20:45:12.061Z,88.05
2022-12-11T20:48:17.351Z,87.45
2022-12-11T20:51:26.130Z,88.23
2022-12-11T20:54:30.994Z,88.02
2022-12-11T20:57:40.536Z,88.57
2022-12-11T21:15:54.297Z,88.32
2022-12-11T21:19:02.008Z,88.28
2022-12-11T21:22:06.726Z,88.22
2022-12-11T21:25:13.918Z,88.30
2022-12-11T21:28:18.793Z,88.07
2022-12-11T21:31:27.152Z,88.40
2022-12-11T21:34:31.965Z,88.10
2022-12-11T21:37:37.026Z,87.85
2022-12-11T21:40:42.006Z,88.16
2022-12-11T21:44:40.797Z,88.09
2022-12-11T21:47:14.833Z,87.43
2022-12-11T21:50:22.829Z,87.67
2022-12-11T21:53:27.960Z,87.15
2022-12-11T21:56:33.060Z,86.42
2022-12-11T21:59:38.239Z,87.27
2022-12-11T22:02:45.575Z,86.44
2022-12-11T22:05:50.740Z,86.89
2022-12-11T22:08:55.746Z,86.33
2022-12-11T22:12:00.288Z,86.44
2022-12-11T22:15:04.642Z,85.79
2022-12-11T22:18:10.720Z,85.53
2022-12-11T22:21:15.668Z,85.54
2022-12-11T22:24:21.729Z,84.68
2022-12-11T22:27:26.552Z,84.52
2022-12-11T22:30:30.841Z,83.71
2022-12-11T22:33:39.383Z,83.86
2022-12-11T22:36:43.813Z,84.33
2022-12-11T22:39:47.852Z,84.25
2022-12-11T22:42:55.063Z,83.73
2022-12-11T22:46:02.758Z,84.12
2022-12-11T22:49:09.196Z,84.24
2022-12-11T22:52:13.701Z,84.02
2022-12-11T22:55:19.159Z,84.26
2022-12-11T22:58:23.864Z,83.97
2022-12-11T23:01:31.596Z,83.03
2022-12-11T23:04:37.591Z,83.03
2022-12-11T23:07:42.133Z,82.70
2022-12-11T23:10:46.850Z,82.03
2022-12-11T23:13:52.038Z,82.40
2022-12-11T23:16:56.748Z,82.14
2022-12-11T23:20:04.355Z,82.15
2022-12-11T23:23:09.829Z,81.83
2022-12-11T23:26:16.067Z,82.02
2022-12-11T23:29:20.989Z,81.87
2022-12-11T23:32:26.028Z,81.17
2022-12-11T23:35:32.333Z,80.91
2022-12-11T23:38:37.596Z,80.28
2022-12-11T23:41:42.350Z,80.04
2022-12-11T23:44:47.561Z,79.38
2022-12-11T23:47:52.424Z,78.94
2022-12-11T23:51:03.961Z,78.34
2022-12-11T23:54:09.319Z,78.50
2022-12-11T23:57:14.071Z,77.57
